sensor_id;sensor_type;location;lat;lon;timestamp;temperature;humidity
46309;DHT22;32037;50.820;6.494;2024-01-16T00:00:45;3.00;99.90
46309;DHT22;32037;50.820;6.494;2024-01-16T00:03:14;3.00;99.90
46309;DHT22;32037;50.820;6.494;2024-01-16T00:05:46;3.00;99.90
46309;DHT22;32037;50.820;6.494;2024-01-16T00:08:15;2.90;99.90
46309;DHT22;32037;50.820;6.494;2024-01-16T00:10:44;3.00;99.90
46309;DHT22;32037;50.820;6.494;2024-01-16T00:13:15;3.00;99.90
46309;DHT22;32037;50.820;6.494;2024-01-16T00:15:45;3.00;99.90
46309;DHT22;32037;50.820;6.494;2024-01-16T00:18:18;3.00;99.90
46309;DHT22;32037;50.820;6.494;2024-01-16T00:21:09;3.00;99.90
46309;DHT22;32037;50.820;6.494;2024-01-16T00:23:38;3.00;99.90
46309;DHT22;32037;50.820;6.494;2024-01-16T00:26:06;3.00;99.90
46309;DHT22;32037;50.820;6.494;2024-01-16T00:28:37;3.00;99.90
46309;DHT22;32037;50.820;6.494;2024-01-16T00:31:07;3.00;99.90
46309;DHT22;32037;50.820;6.494;2024-01-16T00:33:36;3.00;99.90
46309;DHT22;32037;50.820;6.494;2024-01-16T00:36:08;2.90;99.90
46309;DHT22;32037;50.820;6.494;2024-01-16T00:38:43;2.90;99.90
46309;DHT22;32037;50.820;6.494;2024-01-16T00:41:13;3.00;99.90
46309;DHT22;32037;50.820;6.494;2024-01-16T00:43:44;3.00;99.90
46309;DHT22;32037;50.820;6.494;2024-01-16T00:46:12;3.00;99.90
46309;DHT22;32037;50.820;6.494;2024-01-16T00:48:41;3.00;99.90
46309;DHT22;32037;50.820;6.494;2024-01-16T00:51:10;3.00;99.90
46309;DHT22;32037;50.820;6.494;2024-01-16T00:53:44;3.00;99.90
46309;DHT22;32037;50.820;6.494;2024-01-16T00:56:13;3.00;99.90
46309;DHT22;32037;50.820;6.494;2024-01-16T00:58:52;3.00;99.90
46309;DHT22;32037;50.820;6.494;2024-01-16T01:01:22;3.00;99.90
46309;DHT22;32037;50.820;6.494;2024-01-16T01:03:55;3.00;99.90
46309;DHT22;32037;50.820;6.494;2024-01-16T01:06:24;2.90;99.90
46309;DHT22;32037;50.820;6.494;2024-01-16T01:08:59;3.00;99.90
46309;DHT22;32037;50.820;6.494;2024-01-16T01:11:28;3.00;99.90
46309;DHT22;32037;50.820;6.494;2024-01-16T01:13:58;2.90;99.90
46309;DHT22;32037;50.820;6.494;2024-01-16T01:16:26;2.90;99.90
46309;DHT22;32037;50.820;6.494;2024-01-16T01:19:10;2.90;99.90
46309;DHT22;32037;50.820;6.494;2024-01-16T01:21:51;3.00;99.90
46309;DHT22;32037;50.820;6.494;2024-01-16T01:24:24;2.90;99.90
46309;DHT22;32037;50.820;6.494;2024-01-16T01:26:53;3.00;99.90
46309;DHT22;32037;50.820;6.494;2024-01-16T01:29:25;3.00;99.90
46309;DHT22;32037;50.820;6.494;2024-01-16T01:32:04;3.00;99.90
46309;DHT22;32037;50.820;6.494;2024-01-16T01:34:46;3.00;99.90
46309;DHT22;32037;50.820;6.494;2024-01-16T01:37:17;2.90;99.90
46309;DHT22;32037;50.820;6.494;2024-01-16T01:39:49;2.90;99.90
46309;DHT22;32037;50.820;6.494;2024-01-16T01:42:24;2.90;99.90
46309;DHT22;32037;50.820;6.494;2024-01-16T01:45:00;3.00;99.90
46309;DHT22;32037;50.820;6.494;2024-01-16T01:47:37;2.90;99.90
46309;DHT22;32037;50.820;6.494;2024-01-16T01:50:13;2.90;99.90
46309;DHT22;32037;50.820;6.494;2024-01-16T01:52:59;2.90;99.90
46309;DHT22;32037;50.820;6.494;2024-01-16T01:55:33;2.90;99.90
46309;DHT22;32037;50.820;6.494;2024-01-16T01:58:05;2.90;99.90
46309;DHT22;32037;50.820;6.494;2024-01-16T02:00:51;2.90;99.90
46309;DHT22;32037;50.820;6.494;2024-01-16T02:03:44;2.90;99.90
46309;DHT22;32037;50.820;6.494;2024-01-16T02:06:24;2.90;99.90
46309;DHT22;32037;50.820;6.494;2024-01-16T02:08:55;2.90;99.90
46309;DHT22;32037;50.820;6.494;2024-01-16T02:11:33;2.90;99.90
46309;DHT22;32037;50.820;6.494;2024-01-16T02:14:07;2.90;99.90
46309;DHT22;32037;50.820;6.494;2024-01-16T02:16:58;3.00;99.90
46309;DHT22;32037;50.820;6.494;2024-01-16T02:19:36;3.00;99.90
46309;DHT22;32037;50.820;6.494;2024-01-16T02:22:10;3.00;99.90
46309;DHT22;32037;50.820;6.494;2024-01-16T02:24:58;2.90;99.90
46309;DHT22;32037;50.820;6.494;2024-01-16T02:27:45;3.00;99.90
46309;DHT22;32037;50.820;6.494;2024-01-16T02:30:14;2.90;99.90
46309;DHT22;32037;50.820;6.494;2024-01-16T02:32:47;2.90;99.90
46309;DHT22;32037;50.820;6.494;2024-01-16T02:38:31;2.90;99.90
46309;DHT22;32037;50.820;6.494;2024-01-16T02:41:04;2.90;99.90
46309;DHT22;32037;50.820;6.494;2024-01-16T02:43:41;2.90;99.90
46309;DHT22;32037;50.820;6.494;2024-01-16T02:46:16;3.00;99.90
46309;DHT22;32037;50.820;6.494;2024-01-16T02:48:56;2.90;99.90
46309;DHT22;32037;50.820;6.494;2024-01-16T02:51:42;2.90;99.90
46309;DHT22;32037;50.820;6.494;2024-01-16T02:54:25;2.90;99.90
46309;DHT22;32037;50.820;6.494;2024-01-16T02:57:26;2.90;99.90
46309;DHT22;32037;50.820;6.494;2024-01-16T03:00:03;2.90;99.90
46309;DHT22;32037;50.820;6.494;2024-01-16T03:03:02;2.90;99.90
46309;DHT22;32037;50.820;6.494;2024-01-16T03:05:50;2.90;99.90
46309;DHT22;32037;50.820;6.494;2024-01-16T03:11:39;2.90;99.90
46309;DHT22;32037;50.820;6.494;2024-01-16T03:14:16;2.90;99.90
46309;DHT22;32037;50.820;6.494;2024-01-16T03:16:50;2.90;99.90
46309;DHT22;32037;50.820;6.494;2024-01-16T03:19:21;2.90;99.90
46309;DHT22;32037;50.820;6.494;2024-01-16T03:22:07;2.90;99.90
46309;DHT22;32037;50.820;6.494;2024-01-16T03:24:43;2.90;99.90
46309;DHT22;32037;50.820;6.494;2024-01-16T03:27:23;2.90;99.90
46309;DHT22;32037;50.820;6.494;2024-01-16T03:30:22;2.90;99.90
46309;DHT22;32037;50.820;6.494;2024-01-16T03:32:54;2.90;99.90
46309;DHT22;32037;50.820;6.494;2024-01-16T03:35:53;2.90;99.90
46309;DHT22;32037;50.820;6.494;2024-01-16T03:38:53;2.90;99.90
46309;DHT22;32037;50.820;6.494;2024-01-16T03:42:35;3.00;99.90
46309;DHT22;32037;50.820;6.494;2024-01-16T03:45:24;2.90;99.90
46309;DHT22;32037;50.820;6.494;2024-01-16T03:51:42;2.90;99.90
46309;DHT22;32037;50.820;6.494;2024-01-16T03:55:09;2.90;99.90
46309;DHT22;32037;50.820;6.494;2024-01-16T03:57:41;2.90;99.90
46309;DHT22;32037;50.820;6.494;2024-01-16T04:07:02;2.90;99.90
46309;DHT22;32037;50.820;6.494;2024-01-16T04:13:13;2.90;99.90
46309;DHT22;32037;50.820;6.494;2024-01-16T04:15:50;2.90;99.90
46309;DHT22;32037;50.820;6.494;2024-01-16T04:18:49;2.90;99.90
46309;DHT22;32037;50.820;6.494;2024-01-16T04:28:19;2.90;99.90
46309;DHT22;32037;50.820;6.494;2024-01-16T04:30:55;2.90;99.90
46309;DHT22;32037;50.820;6.494;2024-01-16T04:34:08;2.90;99.90
46309;DHT22;32037;50.820;6.494;2024-01-16T04:36:41;2.90;99.90
46309;DHT22;32037;50.820;6.494;2024-01-16T04:39:32;2.90;99.90
46309;DHT22;32037;50.820;6.494;2024-01-16T04:42:47;2.90;99.90
46309;DHT22;32037;50.820;6.494;2024-01-16T04:45:26;2.90;99.90
46309;DHT22;32037;50.820;6.494;2024-01-16T04:48:29;2.90;99.90
46309;DHT22;32037;50.820;6.494;2024-01-16T04:51:13;2.90;99.90
46309;DHT22;32037;50.820;6.494;2024-01-16T04:53:55;2.90;99.90
46309;DHT22;32037;50.820;6.494;2024-01-16T05:00:46;2.90;99.90
46309;DHT22;32037;50.820;6.494;2024-01-16T05:03:50;2.90;99.90
46309;DHT22;32037;50.820;6.494;2024-01-16T05:16:50;2.90;99.90
46309;DHT22;32037;50.820;6.494;2024-01-16T05:23:33;2.90;99.90
46309;DHT22;32037;50.820;6.494;2024-01-16T05:26:50;2.90;99.90
46309;DHT22;32037;50.820;6.494;2024-01-16T05:29:57;2.90;99.90
46309;DHT22;32037;50.820;6.494;2024-01-16T05:32:40;2.90;99.90
46309;DHT22;32037;50.820;6.494;2024-01-16T05:35:09;2.90;99.90
46309;DHT22;32037;50.820;6.494;2024-01-16T05:37:40;2.90;99.90
46309;DHT22;32037;50.820;6.494;2024-01-16T05:40:10;2.90;99.90
46309;DHT22;32037;50.820;6.494;2024-01-16T05:42:39;2.90;99.90
46309;DHT22;32037;50.820;6.494;2024-01-16T05:45:09;2.90;99.90
46309;DHT22;32037;50.820;6.494;2024-01-16T05:47:37;2.90;99.90
46309;DHT22;32037;50.820;6.494;2024-01-16T05:50:07;2.90;99.90
46309;DHT22;32037;50.820;6.494;2024-01-16T05:52:37;2.90;99.90
46309;DHT22;32037;50.820;6.494;2024-01-16T05:55:09;2.90;99.90
46309;DHT22;32037;50.820;6.494;2024-01-16T05:57:39;2.90;99.90
46309;DHT22;32037;50.820;6.494;2024-01-16T06:00:12;2.90;99.90
46309;DHT22;32037;50.820;6.494;2024-01-16T06:02:42;2.90;99.90
46309;DHT22;32037;50.820;6.494;2024-01-16T06:05:11;2.90;99.90
46309;DHT22;32037;50.820;6.494;2024-01-16T06:07:40;2.90;99.90
46309;DHT22;32037;50.820;6.494;2024-01-16T06:10:12;2.90;99.90
46309;DHT22;32037;50.820;6.494;2024-01-16T06:12:41;2.90;99.90
46309;DHT22;32037;50.820;6.494;2024-01-16T06:15:11;2.90;99.90
46309;DHT22;32037;50.820;6.494;2024-01-16T06:17:39;2.90;99.90
46309;DHT22;32037;50.820;6.494;2024-01-16T06:20:11;2.90;99.90
46309;DHT22;32037;50.820;6.494;2024-01-16T06:22:39;2.90;99.90
46309;DHT22;32037;50.820;6.494;2024-01-16T06:25:08;2.90;99.90
46309;DHT22;32037;50.820;6.494;2024-01-16T06:27:36;2.90;99.90
46309;DHT22;32037;50.820;6.494;2024-01-16T06:30:07;2.80;99.90
46309;DHT22;32037;50.820;6.494;2024-01-16T06:32:37;2.90;99.90
46309;DHT22;32037;50.820;6.494;2024-01-16T06:35:07;2.90;99.90
46309;DHT22;32037;50.820;6.494;2024-01-16T06:37:38;2.80;99.90
46309;DHT22;32037;50.820;6.494;2024-01-16T06:40:11;2.90;99.90
46309;DHT22;32037;50.820;6.494;2024-01-16T06:42:41;2.90;99.90
46309;DHT22;32037;50.820;6.494;2024-01-16T06:45:10;2.90;99.90
46309;DHT22;32037;50.820;6.494;2024-01-16T06:47:41;2.90;99.90
46309;DHT22;32037;50.820;6.494;2024-01-16T06:50:10;2.90;99.90
46309;DHT22;32037;50.820;6.494;2024-01-16T06:52:39;2.90;99.90
46309;DHT22;32037;50.820;6.494;2024-01-16T06:55:08;2.90;99.90
46309;DHT22;32037;50.820;6.494;2024-01-16T06:57:37;2.90;99.90
46309;DHT22;32037;50.820;6.494;2024-01-16T07:00:07;2.90;99.90
46309;DHT22;32037;50.820;6.494;2024-01-16T07:02:36;2.90;99.90
46309;DHT22;32037;50.820;6.494;2024-01-16T07:05:06;2.90;99.90
46309;DHT22;32037;50.820;6.494;2024-01-16T07:07:39;2.90;99.90
46309;DHT22;32037;50.820;6.494;2024-01-16T07:10:09;2.90;99.90
46309;DHT22;32037;50.820;6.494;2024-01-16T07:12:45;2.90;99.90
46309;DHT22;32037;50.820;6.494;2024-01-16T07:15:20;2.90;99.90
46309;DHT22;32037;50.820;6.494;2024-01-16T07:17:50;2.90;99.90
46309;DHT22;32037;50.820;6.494;2024-01-16T07:20:21;2.90;99.90
46309;DHT22;32037;50.820;6.494;2024-01-16T07:22:51;2.80;99.90
46309;DHT22;32037;50.820;6.494;2024-01-16T07:25:22;2.90;99.90
46309;DHT22;32037;50.820;6.494;2024-01-16T07:27:52;2.90;99.90
46309;DHT22;32037;50.820;6.494;2024-01-16T07:30:23;2.90;99.90
46309;DHT22;32037;50.820;6.494;2024-01-16T07:32:52;2.90;99.90
46309;DHT22;32037;50.820;6.494;2024-01-16T07:35:24;2.90;99.90
46309;DHT22;32037;50.820;6.494;2024-01-16T07:37:59;2.90;99.90
46309;DHT22;32037;50.820;6.494;2024-01-16T07:40:32;2.90;99.90
46309;DHT22;32037;50.820;6.494;2024-01-16T07:43:02;2.90;99.90
46309;DHT22;32037;50.820;6.494;2024-01-16T07:45:34;2.90;99.90
46309;DHT22;32037;50.820;6.494;2024-01-16T07:48:06;2.90;99.90
46309;DHT22;32037;50.820;6.494;2024-01-16T07:50:53;2.80;99.90
46309;DHT22;32037;50.820;6.494;2024-01-16T07:53:25;2.90;99.90
46309;DHT22;32037;50.820;6.494;2024-01-16T07:56:02;2.90;99.90
46309;DHT22;32037;50.820;6.494;2024-01-16T07:58:33;2.90;99.90
46309;DHT22;32037;50.820;6.494;2024-01-16T08:01:03;2.90;99.90
46309;DHT22;32037;50.820;6.494;2024-01-16T08:03:33;2.90;99.90
46309;DHT22;32037;50.820;6.494;2024-01-16T08:06:04;2.90;99.90
46309;DHT22;32037;50.820;6.494;2024-01-16T08:08:34;2.90;99.90
46309;DHT22;32037;50.820;6.494;2024-01-16T08:11:08;2.90;99.90
46309;DHT22;32037;50.820;6.494;2024-01-16T08:13:41;2.90;99.90
46309;DHT22;32037;50.820;6.494;2024-01-16T08:16:22;2.90;99.90
46309;DHT22;32037;50.820;6.494;2024-01-16T08:19:02;2.80;98.90
46309;DHT22;32037;50.820;6.494;2024-01-16T08:21:37;2.70;98.40
46309;DHT22;32037;50.820;6.494;2024-01-16T08:24:21;2.60;98.20
46309;DHT22;32037;50.820;6.494;2024-01-16T08:26:52;2.60;98.00
46309;DHT22;32037;50.820;6.494;2024-01-16T08:29:22;2.50;98.30
46309;DHT22;32037;50.820;6.494;2024-01-16T08:32:06;2.50;98.40
46309;DHT22;32037;50.820;6.494;2024-01-16T08:34:36;2.60;99.20
46309;DHT22;32037;50.820;6.494;2024-01-16T08:37:08;2.60;99.30
46309;DHT22;32037;50.820;6.494;2024-01-16T08:39:36;2.60;99.30
46309;DHT22;32037;50.820;6.494;2024-01-16T08:42:08;2.70;99.30
46309;DHT22;32037;50.820;6.494;2024-01-16T08:44:41;2.70;99.40
46309;DHT22;32037;50.820;6.494;2024-01-16T08:47:10;2.70;99.40
46309;DHT22;32037;50.820;6.494;2024-01-16T08:49:40;2.70;99.90
46309;DHT22;32037;50.820;6.494;2024-01-16T08:52:12;2.70;99.50
46309;DHT22;32037;50.820;6.494;2024-01-16T08:54:44;2.70;99.60
46309;DHT22;32037;50.820;6.494;2024-01-16T08:57:13;2.70;99.60
46309;DHT22;32037;50.820;6.494;2024-01-16T08:59:45;2.80;99.60
46309;DHT22;32037;50.820;6.494;2024-01-16T09:02:15;2.80;99.70
46309;DHT22;32037;50.820;6.494;2024-01-16T09:04:46;2.80;99.70
46309;DHT22;32037;50.820;6.494;2024-01-16T09:07:21;2.80;99.60
46309;DHT22;32037;50.820;6.494;2024-01-16T09:09:52;2.80;99.60
46309;DHT22;32037;50.820;6.494;2024-01-16T09:12:24;2.80;99.90
46309;DHT22;32037;50.820;6.494;2024-01-16T09:14:54;2.80;99.80
46309;DHT22;32037;50.820;6.494;2024-01-16T09:17:30;2.80;99.70
46309;DHT22;32037;50.820;6.494;2024-01-16T09:20:04;2.80;99.80
46309;DHT22;32037;50.820;6.494;2024-01-16T09:22:35;2.80;99.70
46309;DHT22;32037;50.820;6.494;2024-01-16T09:25:06;2.90;99.70
46309;DHT22;32037;50.820;6.494;2024-01-16T09:27:34;2.80;99.70
46309;DHT22;32037;50.820;6.494;2024-01-16T09:30:06;2.90;99.70
46309;DHT22;32037;50.820;6.494;2024-01-16T09:32:40;2.90;99.80
46309;DHT22;32037;50.820;6.494;2024-01-16T09:35:17;2.90;99.80
46309;DHT22;32037;50.820;6.494;2024-01-16T09:37:57;2.80;99.80
46309;DHT22;32037;50.820;6.494;2024-01-16T09:40:26;2.90;99.80
46309;DHT22;32037;50.820;6.494;2024-01-16T09:42:56;2.90;99.80
46309;DHT22;32037;50.820;6.494;2024-01-16T09:45:25;2.90;99.80
46309;DHT22;32037;50.820;6.494;2024-01-16T09:47:56;2.90;99.70
46309;DHT22;32037;50.820;6.494;2024-01-16T09:50:26;2.90;99.90
46309;DHT22;32037;50.820;6.494;2024-01-16T09:52:59;2.90;99.70
46309;DHT22;32037;50.820;6.494;2024-01-16T09:55:29;2.90;99.70
46309;DHT22;32037;50.820;6.494;2024-01-16T09:58:00;2.90;99.80
46309;DHT22;32037;50.820;6.494;2024-01-16T10:00:32;2.90;99.90
46309;DHT22;32037;50.820;6.494;2024-01-16T10:03:03;2.90;99.80
46309;DHT22;32037;50.820;6.494;2024-01-16T10:05:43;2.90;99.90
46309;DHT22;32037;50.820;6.494;2024-01-16T10:08:20;3.00;99.80
46309;DHT22;32037;50.820;6.494;2024-01-16T10:10:51;3.00;99.80
46309;DHT22;32037;50.820;6.494;2024-01-16T10:13:23;2.90;99.80
46309;DHT22;32037;50.820;6.494;2024-01-16T10:15:52;2.90;99.80
46309;DHT22;32037;50.820;6.494;2024-01-16T10:18:24;2.90;99.70
46309;DHT22;32037;50.820;6.494;2024-01-16T10:20:54;2.90;99.80
46309;DHT22;32037;50.820;6.494;2024-01-16T10:23:25;2.90;99.80
46309;DHT22;32037;50.820;6.494;2024-01-16T10:26:07;2.90;99.80
46309;DHT22;32037;50.820;6.494;2024-01-16T10:28:39;2.90;99.90
46309;DHT22;32037;50.820;6.494;2024-01-16T10:31:10;2.90;99.80
46309;DHT22;32037;50.820;6.494;2024-01-16T10:33:41;2.90;99.90
46309;DHT22;32037;50.820;6.494;2024-01-16T10:36:12;2.90;99.80
46309;DHT22;32037;50.820;6.494;2024-01-16T10:38:47;3.00;99.70
46309;DHT22;32037;50.820;6.494;2024-01-16T10:41:22;3.00;99.90
46309;DHT22;32037;50.820;6.494;2024-01-16T10:44:03;3.00;99.90
46309;DHT22;32037;50.820;6.494;2024-01-16T10:46:31;3.00;99.90
46309;DHT22;32037;50.820;6.494;2024-01-16T10:49:01;3.00;99.80
46309;DHT22;32037;50.820;6.494;2024-01-16T10:51:31;3.00;99.80
46309;DHT22;32037;50.820;6.494;2024-01-16T10:54:03;3.00;99.80
46309;DHT22;32037;50.820;6.494;2024-01-16T10:56:32;3.00;99.80
46309;DHT22;32037;50.820;6.494;2024-01-16T10:59:06;3.00;99.80
46309;DHT22;32037;50.820;6.494;2024-01-16T11:01:39;3.00;99.80
46309;DHT22;32037;50.820;6.494;2024-01-16T11:04:08;3.00;99.80
46309;DHT22;32037;50.820;6.494;2024-01-16T11:06:40;3.00;99.80
46309;DHT22;32037;50.820;6.494;2024-01-16T11:09:12;3.00;99.80
46309;DHT22;32037;50.820;6.494;2024-01-16T11:11:43;2.90;99.90
46309;DHT22;32037;50.820;6.494;2024-01-16T11:14:13;2.90;99.80
46309;DHT22;32037;50.820;6.494;2024-01-16T11:16:44;2.90;99.80
46309;DHT22;32037;50.820;6.494;2024-01-16T11:19:18;2.90;99.90
46309;DHT22;32037;50.820;6.494;2024-01-16T11:22:07;3.00;99.90
46309;DHT22;32037;50.820;6.494;2024-01-16T11:24:38;3.00;99.90
46309;DHT22;32037;50.820;6.494;2024-01-16T11:27:08;2.90;99.90
46309;DHT22;32037;50.820;6.494;2024-01-16T11:29:36;3.00;99.80
46309;DHT22;32037;50.820;6.494;2024-01-16T11:32:05;2.90;99.80
46309;DHT22;32037;50.820;6.494;2024-01-16T11:34:53;3.00;99.90
46309;DHT22;32037;50.820;6.494;2024-01-16T11:37:27;2.90;99.90
46309;DHT22;32037;50.820;6.494;2024-01-16T11:40:22;3.00;99.90
46309;DHT22;32037;50.820;6.494;2024-01-16T11:42:54;3.00;99.90
46309;DHT22;32037;50.820;6.494;2024-01-16T11:45:48;3.00;99.90
46309;DHT22;32037;50.820;6.494;2024-01-16T11:48:20;2.90;99.80
46309;DHT22;32037;50.820;6.494;2024-01-16T11:50:52;3.00;99.90
46309;DHT22;32037;50.820;6.494;2024-01-16T11:53:37;3.00;99.90
46309;DHT22;32037;50.820;6.494;2024-01-16T11:56:54;3.00;99.90
46309;DHT22;32037;50.820;6.494;2024-01-16T11:59:42;3.00;99.90
46309;DHT22;32037;50.820;6.494;2024-01-16T12:02:23;3.00;99.90
46309;DHT22;32037;50.820;6.494;2024-01-16T12:04:55;3.00;99.90
46309;DHT22;32037;50.820;6.494;2024-01-16T12:07:26;3.00;99.90
46309;DHT22;32037;50.820;6.494;2024-01-16T12:09:59;2.90;99.90
46309;DHT22;32037;50.820;6.494;2024-01-16T12:12:36;3.00;99.90
46309;DHT22;32037;50.820;6.494;2024-01-16T12:15:06;2.90;99.90
46309;DHT22;32037;50.820;6.494;2024-01-16T12:17:35;3.00;99.90
46309;DHT22;32037;50.820;6.494;2024-01-16T12:20:16;3.00;99.90
46309;DHT22;32037;50.820;6.494;2024-01-16T12:22:45;3.00;99.90
46309;DHT22;32037;50.820;6.494;2024-01-16T12:25:19;3.00;99.90
46309;DHT22;32037;50.820;6.494;2024-01-16T12:27:57;3.00;99.90
46309;DHT22;32037;50.820;6.494;2024-01-16T12:30:27;3.00;99.90
46309;DHT22;32037;50.820;6.494;2024-01-16T12:33:06;3.00;99.90
46309;DHT22;32037;50.820;6.494;2024-01-16T12:35:40;3.00;99.90
46309;DHT22;32037;50.820;6.494;2024-01-16T12:38:10;3.00;99.90
46309;DHT22;32037;50.820;6.494;2024-01-16T12:40:40;3.00;99.90
46309;DHT22;32037;50.820;6.494;2024-01-16T12:43:11;3.00;99.80
46309;DHT22;32037;50.820;6.494;2024-01-16T12:45:39;3.00;99.90
46309;DHT22;32037;50.820;6.494;2024-01-16T12:48:07;3.00;99.90
46309;DHT22;32037;50.820;6.494;2024-01-16T12:50:35;3.00;99.90
46309;DHT22;32037;50.820;6.494;2024-01-16T12:53:05;3.00;99.90
46309;DHT22;32037;50.820;6.494;2024-01-16T12:55:35;3.00;99.90
46309;DHT22;32037;50.820;6.494;2024-01-16T12:58:18;3.00;99.90
46309;DHT22;32037;50.820;6.494;2024-01-16T13:00:51;3.00;99.90
46309;DHT22;32037;50.820;6.494;2024-01-16T13:03:21;3.00;99.90
46309;DHT22;32037;50.820;6.494;2024-01-16T13:05:55;3.00;99.90
46309;DHT22;32037;50.820;6.494;2024-01-16T13:08:24;3.00;99.90
46309;DHT22;32037;50.820;6.494;2024-01-16T13:11:02;3.00;99.90
46309;DHT22;32037;50.820;6.494;2024-01-16T13:13:33;3.00;99.90
46309;DHT22;32037;50.820;6.494;2024-01-16T13:16:02;3.00;99.90
46309;DHT22;32037;50.820;6.494;2024-01-16T13:18:32;3.00;99.90
46309;DHT22;32037;50.820;6.494;2024-01-16T13:21:01;3.00;99.90
46309;DHT22;32037;50.820;6.494;2024-01-16T13:23:31;3.00;99.90
46309;DHT22;32037;50.820;6.494;2024-01-16T13:26:00;3.00;99.90
46309;DHT22;32037;50.820;6.494;2024-01-16T13:28:32;3.00;99.90
46309;DHT22;32037;50.820;6.494;2024-01-16T13:31:00;3.00;99.90
46309;DHT22;32037;50.820;6.494;2024-01-16T13:33:31;3.00;99.90
46309;DHT22;32037;50.820;6.494;2024-01-16T13:35:59;3.00;99.90
46309;DHT22;32037;50.820;6.494;2024-01-16T13:38:27;3.00;99.90
46309;DHT22;32037;50.820;6.494;2024-01-16T13:40:56;3.00;99.90
46309;DHT22;32037;50.820;6.494;2024-01-16T13:43:25;3.00;99.90
46309;DHT22;32037;50.820;6.494;2024-01-16T13:45:54;3.00;99.90
46309;DHT22;32037;50.820;6.494;2024-01-16T13:48:23;2.90;99.90
46309;DHT22;32037;50.820;6.494;2024-01-16T13:50:52;3.00;99.90
46309;DHT22;32037;50.820;6.494;2024-01-16T13:53:22;3.00;99.90
46309;DHT22;32037;50.820;6.494;2024-01-16T13:55:51;3.00;99.90
46309;DHT22;32037;50.820;6.494;2024-01-16T13:58:19;3.00;99.90
46309;DHT22;32037;50.820;6.494;2024-01-16T14:00:47;3.00;99.90
46309;DHT22;32037;50.820;6.494;2024-01-16T14:03:16;3.00;99.90
46309;DHT22;32037;50.820;6.494;2024-01-16T14:05:46;3.00;99.90
46309;DHT22;32037;50.820;6.494;2024-01-16T14:08:14;3.00;99.90
46309;DHT22;32037;50.820;6.494;2024-01-16T14:18:03;3.00;99.90
46309;DHT22;32037;50.820;6.494;2024-01-16T14:20:36;3.00;99.90
46309;DHT22;32037;50.820;6.494;2024-01-16T14:23:05;3.00;99.90
46309;DHT22;32037;50.820;6.494;2024-01-16T14:25:33;3.00;99.90
46309;DHT22;32037;50.820;6.494;2024-01-16T14:28:02;3.00;99.90
46309;DHT22;32037;50.820;6.494;2024-01-16T14:30:32;3.00;99.90
46309;DHT22;32037;50.820;6.494;2024-01-16T14:33:03;3.00;99.90
46309;DHT22;32037;50.820;6.494;2024-01-16T14:35:34;3.00;99.70
46309;DHT22;32037;50.820;6.494;2024-01-16T14:38:03;3.00;99.70
46309;DHT22;32037;50.820;6.494;2024-01-16T14:40:33;3.00;99.70
46309;DHT22;32037;50.820;6.494;2024-01-16T14:43:01;3.00;99.70
46309;DHT22;32037;50.820;6.494;2024-01-16T14:45:31;3.00;99.80
46309;DHT22;32037;50.820;6.494;2024-01-16T14:47:59;3.00;99.80
46309;DHT22;32037;50.820;6.494;2024-01-16T14:50:31;3.00;99.90
46309;DHT22;32037;50.820;6.494;2024-01-16T14:53:00;3.00;99.80
46309;DHT22;32037;50.820;6.494;2024-01-16T14:55:31;3.00;99.90
46309;DHT22;32037;50.820;6.494;2024-01-16T14:58:00;3.00;99.90
46309;DHT22;32037;50.820;6.494;2024-01-16T15:00:28;3.00;99.70
46309;DHT22;32037;50.820;6.494;2024-01-16T15:02:57;3.00;99.90
46309;DHT22;32037;50.820;6.494;2024-01-16T15:05:26;3.00;99.80
46309;DHT22;32037;50.820;6.494;2024-01-16T15:07:54;3.00;99.90
46309;DHT22;32037;50.820;6.494;2024-01-16T15:10:23;3.00;99.90
46309;DHT22;32037;50.820;6.494;2024-01-16T15:12:52;3.00;99.90
46309;DHT22;32037;50.820;6.494;2024-01-16T15:15:20;3.00;99.90
46309;DHT22;32037;50.820;6.494;2024-01-16T15:17:49;3.00;99.90
46309;DHT22;32037;50.820;6.494;2024-01-16T15:20:19;3.00;99.90
46309;DHT22;32037;50.820;6.494;2024-01-16T15:22:48;3.00;99.90
46309;DHT22;32037;50.820;6.494;2024-01-16T15:25:20;3.00;99.90
46309;DHT22;32037;50.820;6.494;2024-01-16T15:27:48;3.00;99.90
46309;DHT22;32037;50.820;6.494;2024-01-16T15:30:21;3.00;99.80
46309;DHT22;32037;50.820;6.494;2024-01-16T15:32:54;3.00;99.90
46309;DHT22;32037;50.820;6.494;2024-01-16T15:35:23;3.00;99.90
46309;DHT22;32037;50.820;6.494;2024-01-16T15:37:51;3.00;99.90
46309;DHT22;32037;50.820;6.494;2024-01-16T15:40:19;3.00;99.90
46309;DHT22;32037;50.820;6.494;2024-01-16T15:42:47;3.00;99.90
46309;DHT22;32037;50.820;6.494;2024-01-16T15:45:16;3.00;99.90
46309;DHT22;32037;50.820;6.494;2024-01-16T15:47:46;3.00;99.90
46309;DHT22;32037;50.820;6.494;2024-01-16T15:50:14;3.00;99.80
46309;DHT22;32037;50.820;6.494;2024-01-16T15:52:42;3.00;99.90
46309;DHT22;32037;50.820;6.494;2024-01-16T15:55:10;3.00;99.90
46309;DHT22;32037;50.820;6.494;2024-01-16T15:57:39;2.90;99.90
46309;DHT22;32037;50.820;6.494;2024-01-16T16:00:08;3.00;99.90
46309;DHT22;32037;50.820;6.494;2024-01-16T16:02:37;3.00;99.90
46309;DHT22;32037;50.820;6.494;2024-01-16T16:05:08;3.00;99.90
46309;DHT22;32037;50.820;6.494;2024-01-16T16:07:37;3.00;99.90
46309;DHT22;32037;50.820;6.494;2024-01-16T16:10:06;2.90;99.90
46309;DHT22;32037;50.820;6.494;2024-01-16T16:12:34;3.00;99.90
46309;DHT22;32037;50.820;6.494;2024-01-16T16:15:04;3.00;99.90
46309;DHT22;32037;50.820;6.494;2024-01-16T16:17:32;3.00;99.90
46309;DHT22;32037;50.820;6.494;2024-01-16T16:20:00;3.00;99.90
46309;DHT22;32037;50.820;6.494;2024-01-16T16:22:31;3.00;99.90
46309;DHT22;32037;50.820;6.494;2024-01-16T16:24:59;2.90;99.90
46309;DHT22;32037;50.820;6.494;2024-01-16T16:27:28;2.90;99.90
46309;DHT22;32037;50.820;6.494;2024-01-16T16:29:56;3.00;99.90
46309;DHT22;32037;50.820;6.494;2024-01-16T16:32:25;3.00;99.90
46309;DHT22;32037;50.820;6.494;2024-01-16T16:34:55;2.90;99.90
46309;DHT22;32037;50.820;6.494;2024-01-16T16:37:23;2.90;99.90
46309;DHT22;32037;50.820;6.494;2024-01-16T16:39:53;2.90;99.90
46309;DHT22;32037;50.820;6.494;2024-01-16T16:42:22;3.00;99.90
46309;DHT22;32037;50.820;6.494;2024-01-16T16:44:50;2.90;99.90
46309;DHT22;32037;50.820;6.494;2024-01-16T16:47:19;2.90;99.90
46309;DHT22;32037;50.820;6.494;2024-01-16T16:49:48;2.90;99.80
46309;DHT22;32037;50.820;6.494;2024-01-16T16:52:16;2.90;99.90
46309;DHT22;32037;50.820;6.494;2024-01-16T16:54:44;2.90;99.90
46309;DHT22;32037;50.820;6.494;2024-01-16T16:57:15;2.90;99.70
46309;DHT22;32037;50.820;6.494;2024-01-16T16:59:45;2.90;99.90
46309;DHT22;32037;50.820;6.494;2024-01-16T17:02:13;2.90;99.90
46309;DHT22;32037;50.820;6.494;2024-01-16T17:04:42;2.90;99.80
46309;DHT22;32037;50.820;6.494;2024-01-16T17:07:10;2.90;99.90
46309;DHT22;32037;50.820;6.494;2024-01-16T17:09:40;2.90;99.90
46309;DHT22;32037;50.820;6.494;2024-01-16T17:12:10;2.90;99.90
46309;DHT22;32037;50.820;6.494;2024-01-16T17:14:39;2.90;99.90
46309;DHT22;32037;50.820;6.494;2024-01-16T17:17:07;2.90;99.90
46309;DHT22;32037;50.820;6.494;2024-01-16T17:19:37;2.90;99.90